Time;durP1;ratioP1;P1;durP2;ratioP2;P2;SDS_P1;SDS_P2;PMS_P1;PMS_P2;Temp;Humidity;BMP_temperature;BMP_pressure;BME280_temperature;BME280_humidity;BME280_pressure;Samples;Min_cycle;Max_cycle;Signal;HPM_P1;HPM_P2
2022/05/24 00:02:16;;;;;;;21.23;11.25;;;;;;;;;;5015122;28;20057;-66
2022/05/24 00:04:42;;;;;;;20.33;11.60;;;;;;;;;;5011255;28;20053;-66
2022/05/24 00:07:08;;;;;;;22.63;12.10;;;;;;;;;;5013891;28;20125;-68
2022/05/24 00:09:34;;;;;;;18.90;11.57;;;;;;;;;;5009694;28;20068;-67
2022/05/24 00:12:00;;;;;;;19.40;11.82;;;;;;;;;;5016689;28;20072;-66
2022/05/24 00:17:11;;;;;;;20.27;12.80;;;;;;;;;;5010158;28;20069;-67
2022/05/24 00:19:38;;;;;;;20.27;11.90;;;;;;;;;;5010779;28;20049;-66
2022/05/24 00:22:04;;;;;;;21.85;11.65;;;;;;;;;;5014149;28;20045;-64
2022/05/24 00:24:30;;;;;;;21.27;11.82;;;;;;;;;;5023452;28;20053;-65
2022/05/24 00:26:56;;;;;;;19.92;12.35;;;;;;;;;;5010381;28;20068;-65
2022/05/24 00:29:22;;;;;;;19.05;11.35;;;;;;;;;;5009649;28;20069;-65
2022/05/24 00:31:48;;;;;;;19.90;11.93;;;;;;;;;;5014770;28;20041;-65
2022/05/24 00:34:14;;;;;;;23.40;12.55;;;;;;;;;;5029877;28;20698;-64
2022/05/24 00:36:40;;;;;;;21.17;11.82;;;;;;;;;;5010702;28;20057;-65
2022/05/24 00:39:06;;;;;;;21.08;12.05;;;;;;;;;;5010250;28;20045;-65
2022/05/24 00:41:36;;;;;;;20.58;11.13;;;;;;;;;;5009474;28;20184;-65
2022/05/24 00:44:05;;;;;;;24.92;11.80;;;;;;;;;;5026747;28;20111;-65
2022/05/24 00:46:40;;;;;;;21.80;11.55;;;;;;;;;;5015582;28;20046;-66
2022/05/24 00:49:08;;;;;;;20.80;11.63;;;;;;;;;;5017808;28;20053;-65
2022/05/24 00:51:38;;;;;;;19.00;11.10;;;;;;;;;;5030232;28;20049;-66
2022/05/24 00:54:04;;;;;;;18.00;9.90;;;;;;;;;;5022430;28;20084;-65
2022/05/24 00:56:49;;;;;;;16.55;10.10;;;;;;;;;;5020571;28;20081;-66
2022/05/24 00:59:24;;;;;;;17.85;10.05;;;;;;;;;;5010326;28;20065;-66
2022/05/24 01:01:50;;;;;;;18.75;8.68;;;;;;;;;;5025724;28;20137;-66
2022/05/24 01:04:22;;;;;;;;;;;;;;;;;;5013566;28;20111;-65
2022/05/24 01:06:48;;;;;;;17.85;9.35;;;;;;;;;;5007474;28;20008;-66
2022/05/24 01:09:17;;;;;;;18.58;9.48;;;;;;;;;;5009648;28;20058;-65
2022/05/24 01:11:45;;;;;;;17.83;9.20;;;;;;;;;;5008362;28;20064;-65
2022/05/24 01:14:13;;;;;;;14.70;8.80;;;;;;;;;;5014832;28;20065;-64
2022/05/24 01:16:39;;;;;;;16.65;7.95;;;;;;;;;;5008044;28;20054;-64
2022/05/24 01:19:10;;;;;;;19.00;8.57;;;;;;;;;;5009331;28;20068;-65
2022/05/24 01:21:38;;;;;;;15.40;8.60;;;;;;;;;;5010065;28;20050;-66
2022/05/24 01:24:13;;;;;;;16.52;9.45;;;;;;;;;;5007634;28;20061;-65
2022/05/24 01:26:39;;;;;;;17.73;9.50;;;;;;;;;;5007245;28;20045;-65
2022/05/24 01:29:06;;;;;;;17.65;8.77;;;;;;;;;;5010777;28;20133;-64
2022/05/24 01:37:04;;;;;;;15.98;10.15;;;;;;;;;;4989673;28;20069;-65
2022/05/24 01:39:30;;;;;;;17.17;10.10;;;;;;;;;;5007126;28;20053;-66
2022/05/24 01:41:58;;;;;;;18.40;9.27;;;;;;;;;;5028824;28;20504;-65
2022/05/24 01:44:53;;;;;;;17.73;10.02;;;;;;;;;;5022570;28;20546;-67
2022/05/24 01:47:20;;;;;;;19.77;10.35;;;;;;;;;;4995844;28;20050;-65
2022/05/24 01:49:49;;;;;;;16.52;9.27;;;;;;;;;;5007600;28;20041;-65
2022/05/24 01:52:24;;;;;;;20.23;10.52;;;;;;;;;;5024618;28;20120;-65
2022/05/24 01:54:55;;;;;;;18.27;10.65;;;;;;;;;;5024938;28;20049;-65
2022/05/24 01:57:23;;;;;;;19.48;10.48;;;;;;;;;;5008787;28;20366;-65
2022/05/24 01:59:50;;;;;;;20.75;9.98;;;;;;;;;;5012359;28;20041;-65
2022/05/24 02:02:17;;;;;;;19.23;11.10;;;;;;;;;;5028134;28;20107;-65
2022/05/24 02:04:43;;;;;;;19.08;10.45;;;;;;;;;;5028717;28;20350;-65
2022/05/24 02:07:09;;;;;;;19.25;10.60;;;;;;;;;;5007655;28;20041;-64
2022/05/24 02:09:37;;;;;;;17.92;10.32;;;;;;;;;;5009042;28;20073;-65
2022/05/24 02:12:07;;;;;;;20.42;10.95;;;;;;;;;;5012130;28;20046;-65
2022/05/24 02:14:35;;;;;;;21.52;11.38;;;;;;;;;;5026274;28;20073;-65
2022/05/24 02:17:09;;;;;;;17.60;11.48;;;;;;;;;;5014186;28;20129;-66
2022/05/24 02:19:38;;;;;;;17.80;11.60;;;;;;;;;;5014003;28;20045;-65
2022/05/24 02:22:12;;;;;;;22.42;12.88;;;;;;;;;;5028876;28;20050;-66
2022/05/24 02:24:38;;;;;;;18.00;11.65;;;;;;;;;;5028678;28;20049;-65
2022/05/24 02:27:04;;;;;;;24.40;12.05;;;;;;;;;;5026128;28;20045;-65
2022/05/24 02:29:31;;;;;;;22.02;12.90;;;;;;;;;;5013090;28;20163;-64
2022/05/24 02:31:57;;;;;;;23.38;11.88;;;;;;;;;;5008773;28;20192;-64
2022/05/24 02:34:23;;;;;;;22.40;12.45;;;;;;;;;;5024208;28;20053;-65
2022/05/24 02:36:50;;;;;;;19.65;12.48;;;;;;;;;;5022255;28;20367;-64
2022/05/24 02:39:15;;;;;;;;;;;;;;;;;;5019103;28;20042;-64
2022/05/24 02:41:42;;;;;;;21.77;12.50;;;;;;;;;;5008545;28;19928;-65
2022/05/24 02:44:15;;;;;;;21.08;12.25;;;;;;;;;;5008701;28;20126;-64
2022/05/24 02:46:46;;;;;;;24.52;11.93;;;;;;;;;;5008879;28;20128;-65
2022/05/24 02:49:12;;;;;;;22.02;12.70;;;;;;;;;;5019046;28;20509;-63
2022/05/24 02:51:39;;;;;;;20.80;12.15;;;;;;;;;;5007648;28;20132;-64
2022/05/24 02:54:06;;;;;;;22.17;12.15;;;;;;;;;;5011958;28;20050;-65
2022/05/24 02:56:32;;;;;;;21.15;12.98;;;;;;;;;;5023648;28;20159;-65
2022/05/24 02:58:58;;;;;;;;;;;;;;;;;;5029283;28;20076;-65
2022/05/24 03:01:26;;;;;;;21.33;11.93;;;;;;;;;;5021039;28;19933;-65
2022/05/24 03:03:53;;;;;;;21.95;12.85;;;;;;;;;;5032103;28;20148;-64
2022/05/24 03:06:19;;;;;;;21.75;12.85;;;;;;;;;;5031692;28;20057;-65
2022/05/24 03:14:16;;;;;;;24.80;14.57;;;;;;;;;;5016209;28;20199;-64
2022/05/24 03:16:45;;;;;;;24.20;14.93;;;;;;;;;;5030538;28;20045;-64
2022/05/24 03:19:11;;;;;;;22.42;14.25;;;;;;;;;;5011880;28;20042;-64
2022/05/24 03:21:37;;;;;;;26.23;15.63;;;;;;;;;;5011759;28;20068;-65
2022/05/24 03:24:03;;;;;;;22.77;14.52;;;;;;;;;;5022954;28;20102;-64
2022/05/24 03:26:29;;;;;;;31.77;16.40;;;;;;;;;;5031404;28;20056;-64
2022/05/24 03:28:55;;;;;;;29.95;18.20;;;;;;;;;;5017672;28;20065;-65
2022/05/24 03:31:21;;;;;;;33.40;18.08;;;;;;;;;;5009458;28;20124;-64
2022/05/24 03:33:47;;;;;;;27.13;16.60;;;;;;;;;;5012054;28;20153;-65
2022/05/24 03:36:13;;;;;;;28.27;18.02;;;;;;;;;;5018741;28;20123;-65
2022/05/24 03:38:39;;;;;;;;;;;;;;;;;;5028327;28;20059;-65
2022/05/24 03:41:06;;;;;;;32.03;20.05;;;;;;;;;;5010702;28;20008;-65
2022/05/24 03:43:32;;;;;;;30.60;18.73;;;;;;;;;;5010615;28;20470;-65
2022/05/24 03:45:59;;;;;;;28.92;19.05;;;;;;;;;;5011578;28;20328;-64
2022/05/24 03:48:25;;;;;;;34.53;20.17;;;;;;;;;;5009942;28;20054;-64
2022/05/24 03:50:51;;;;;;;33.25;20.17;;;;;;;;;;5009507;28;20116;-65
2022/05/24 03:53:17;;;;;;;36.45;22.23;;;;;;;;;;5030446;28;20143;-65
2022/05/24 03:55:43;;;;;;;39.03;22.65;;;;;;;;;;5029513;28;20061;-64
2022/05/24 03:58:09;;;;;;;35.58;22.13;;;;;;;;;;5031229;28;20090;-64
2022/05/24 04:00:36;;;;;;;37.10;23.63;;;;;;;;;;5019478;28;20069;-64
2022/05/24 04:03:03;;;;;;;36.00;22.60;;;;;;;;;;5015779;28;20450;-65
2022/05/24 04:05:29;;;;;;;39.60;25.42;;;;;;;;;;5018618;28;20132;-64
2022/05/24 04:07:55;;;;;;;42.22;25.23;;;;;;;;;;5019378;28;20042;-65
2022/05/24 04:10:21;;;;;;;43.10;24.33;;;;;;;;;;5009293;28;20524;-64
2022/05/24 04:12:48;;;;;;;40.05;25.20;;;;;;;;;;5017193;28;20504;-64
2022/05/24 04:15:14;;;;;;;39.95;24.25;;;;;;;;;;5010679;28;20061;-65
2022/05/24 04:17:41;;;;;;;37.13;24.38;;;;;;;;;;5008408;28;20426;-64
2022/05/24 04:20:09;;;;;;;42.30;25.40;;;;;;;;;;5011004;28;20054;-65
2022/05/24 04:22:35;;;;;;;42.63;26.52;;;;;;;;;;5022751;28;20172;-64
2022/05/24 04:25:02;;;;;;;36.40;24.80;;;;;;;;;;4991421;28;20490;-64
2022/05/24 04:27:28;;;;;;;44.10;27.42;;;;;;;;;;4990873;28;20128;-64
2022/05/24 04:29:54;;;;;;;42.20;27.08;;;;;;;;;;5007650;28;20053;-64
2022/05/24 04:32:20;;;;;;;;;;;;;;;;;;5024869;28;20116;-64
2022/05/24 04:34:46;;;;;;;37.63;24.10;;;;;;;;;;5013309;28;19926;-66
2022/05/24 04:37:12;;;;;;;;;;;;;;;;;;5011008;28;20404;-67
2022/05/24 04:39:39;;;;;;;40.15;23.40;;;;;;;;;;5008887;28;19932;-64
2022/05/24 04:42:21;;;;;;;;;;;;;;;;;;5010823;28;20110;-65
2022/05/24 04:44:52;;;;;;;34.72;22.75;;;;;;;;;;5016004;28;20020;-64
2022/05/24 04:47:19;;;;;;;34.63;22.02;;;;;;;;;;5030108;28;20096;-64
2022/05/24 04:49:47;;;;;;;35.95;21.58;;;;;;;;;;5017971;28;20236;-64
2022/05/24 04:52:14;;;;;;;35.25;22.63;;;;;;;;;;5010211;28;20053;-65
2022/05/24 04:54:40;;;;;;;32.55;21.13;;;;;;;;;;4991102;28;20058;-65
2022/05/24 04:57:07;;;;;;;36.60;20.75;;;;;;;;;;5010788;28;20359;-65
2022/05/24 04:59:33;;;;;;;30.05;20.00;;;;;;;;;;5009030;28;20402;-64
2022/05/24 05:02:00;;;;;;;32.67;20.70;;;;;;;;;;5007184;28;20077;-65
2022/05/24 05:04:26;;;;;;;35.88;21.10;;;;;;;;;;5023902;28;20042;-65
2022/05/24 05:06:52;;;;;;;31.90;20.42;;;;;;;;;;5013754;28;20089;-65
2022/05/24 05:09:18;;;;;;;32.60;17.88;;;;;;;;;;5009827;28;20042;-67
2022/05/24 05:11:44;;;;;;;;;;;;;;;;;;5009985;28;20100;-66
2022/05/24 05:14:10;;;;;;;30.90;18.02;;;;;;;;;;5009791;28;19969;-66
2022/05/24 05:16:37;;;;;;;27.30;17.92;;;;;;;;;;5013466;28;20460;-65
2022/05/24 05:19:08;;;;;;;31.13;17.08;;;;;;;;;;5012541;28;20077;-65
2022/05/24 05:21:35;;;;;;;27.15;18.25;;;;;;;;;;5008952;28;20107;-65
2022/05/24 05:24:01;;;;;;;29.52;17.30;;;;;;;;;;5009628;28;20494;-65
2022/05/24 05:26:28;;;;;;;30.58;17.73;;;;;;;;;;5016334;28;20041;-65
2022/05/24 05:28:54;;;;;;;28.80;17.40;;;;;;;;;;5017877;28;20050;-66
2022/05/24 05:31:24;;;;;;;27.63;17.38;;;;;;;;;;5008691;28;20042;-65
2022/05/24 05:33:51;;;;;;;28.08;17.90;;;;;;;;;;5008974;28;20077;-65
2022/05/24 05:36:18;;;;;;;28.17;17.52;;;;;;;;;;5008575;28;20060;-65
2022/05/24 05:38:47;;;;;;;29.30;16.67;;;;;;;;;;5008428;28;20046;-65
2022/05/24 05:41:18;;;;;;;53.60;30.92;;;;;;;;;;5001410;28;20046;-66
2022/05/24 05:43:44;;;;;;;36.33;21.88;;;;;;;;;;5003025;28;20127;-64
2022/05/24 05:46:10;;;;;;;;;;;;;;;;;;5027569;28;20045;-65
2022/05/24 05:48:37;;;;;;;32.20;18.63;;;;;;;;;;5007875;28;19921;-64
2022/05/24 05:51:03;;;;;;;40.22;25.42;;;;;;;;;;5014329;28;20481;-65
2022/05/24 05:53:29;;;;;;;34.80;18.70;;;;;;;;;;5008853;28;20049;-65
2022/05/24 05:55:55;;;;;;;28.80;17.73;;;;;;;;;;5007410;28;20138;-65
2022/05/24 05:58:21;;;;;;;30.58;18.42;;;;;;;;;;5009775;28;20096;-66
2022/05/24 06:00:50;;;;;;;33.53;18.17;;;;;;;;;;5017163;28;20072;-64
2022/05/24 06:03:17;;;;;;;39.63;19.15;;;;;;;;;;5028616;28;20049;-66
2022/05/24 06:05:44;;;;;;;39.80;21.15;;;;;;;;;;5027603;28;20127;-65
2022/05/24 06:08:10;;;;;;;31.83;20.17;;;;;;;;;;5014962;28;20049;-65
2022/05/24 06:10:36;;;;;;;;;;;;;;;;;;5006761;28;20508;-64
2022/05/24 06:13:03;;;;;;;34.05;21.20;;;;;;;;;;5007845;28;19925;-65
2022/05/24 06:15:30;;;;;;;45.17;22.15;;;;;;;;;;5007122;28;20053;-65
2022/05/24 06:17:56;;;;;;;41.00;22.30;;;;;;;;;;5006653;28;20220;-64
2022/05/24 06:20:22;;;;;;;;;;;;;;;;;;5009363;28;20456;-64
2022/05/24 06:22:49;;;;;;;37.65;22.65;;;;;;;;;;5022194;28;20003;-64
2022/05/24 06:25:16;;;;;;;31.77;19.17;;;;;;;;;;5027556;28;20057;-64
2022/05/24 06:27:42;;;;;;;31.75;17.00;;;;;;;;;;5011975;28;20053;-63
2022/05/24 06:30:09;;;;;;;32.95;17.55;;;;;;;;;;5005182;28;20418;-63
2022/05/24 06:32:34;;;;;;;;;;;;;;;;;;5012476;28;20049;-64
2022/05/24 06:35:01;;;;;;;27.40;16.90;;;;;;;;;;5008702;28;19922;-63
2022/05/24 06:37:27;;;;;;;34.85;17.48;;;;;;;;;;5010503;28;20050;-62
2022/05/24 06:39:53;;;;;;;29.67;17.98;;;;;;;;;;5009978;28;20374;-62
2022/05/24 06:42:19;;;;;;;38.53;20.83;;;;;;;;;;5007108;28;20038;-62
2022/05/24 06:44:45;;;;;;;39.58;21.88;;;;;;;;;;5024466;28;20068;-63
2022/05/24 06:47:11;;;;;;;32.90;18.70;;;;;;;;;;5028456;28;20060;-62
2022/05/24 06:49:37;;;;;;;;;;;;;;;;;;5026081;28;20879;-62
2022/05/24 06:52:04;;;;;;;33.80;20.17;;;;;;;;;;5015224;28;20000;-63
2022/05/24 06:54:30;;;;;;;39.75;20.92;;;;;;;;;;5021620;28;20127;-62
2022/05/24 06:56:56;;;;;;;33.25;19.23;;;;;;;;;;5023256;28;20089;-63
2022/05/24 07:02:26;;;;;;;34.72;20.13;;;;;;;;;;5016085;28;20086;-63
2022/05/24 07:05:00;;;;;;;37.60;20.00;;;;;;;;;;5010043;28;20093;-62
2022/05/24 07:07:26;;;;;;;36.03;20.67;;;;;;;;;;5011790;28;20076;-63
2022/05/24 07:09:52;;;;;;;;;;;;;;;;;;5009543;28;20061;-63
2022/05/24 07:12:19;;;;;;;40.50;22.45;;;;;;;;;;5008361;28;20028;-63
2022/05/24 07:14:45;;;;;;;44.85;24.40;;;;;;;;;;5010474;28;20057;-64
2022/05/24 07:17:11;;;;;;;44.17;23.08;;;;;;;;;;5010025;28;20152;-63
2022/05/24 07:19:38;;;;;;;38.20;20.83;;;;;;;;;;5005848;28;20371;-65
2022/05/24 07:22:05;;;;;;;36.42;20.80;;;;;;;;;;5006340;28;20046;-64
2022/05/24 07:24:31;;;;;;;41.05;20.83;;;;;;;;;;5018453;28;20053;-64
2022/05/24 07:26:57;;;;;;;34.35;18.33;;;;;;;;;;5026471;28;20061;-64
2022/05/24 07:29:24;;;;;;;34.10;19.13;;;;;;;;;;5024666;28;20045;-64
2022/05/24 07:31:50;;;;;;;27.65;15.90;;;;;;;;;;5026176;28;20041;-64
2022/05/24 07:34:16;;;;;;;28.65;15.05;;;;;;;;;;5018159;28;20045;-65
2022/05/24 07:36:42;;;;;;;;;;;;;;;;;;5003013;28;20129;-65
2022/05/24 07:39:08;;;;;;;30.58;13.82;;;;;;;;;;5008502;28;20216;-65
2022/05/24 07:47:09;;;;;;;21.40;10.90;;;;;;;;;;5017252;28;20120;-63
2022/05/24 07:49:36;;;;;;;19.40;10.82;;;;;;;;;;5026098;28;20123;-65
2022/05/24 07:52:02;;;;;;;24.00;12.43;;;;;;;;;;5018404;28;20050;-64
2022/05/24 07:54:28;;;;;;;26.52;10.65;;;;;;;;;;5018321;28;20046;-64
2022/05/24 07:56:54;;;;;;;21.60;10.00;;;;;;;;;;5024728;28;20158;-65
2022/05/24 07:59:20;;;;;;;20.05;9.43;;;;;;;;;;5029714;28;20095;-63
2022/05/24 08:01:47;;;;;;;24.33;9.95;;;;;;;;;;5012865;28;20053;-64
2022/05/24 08:04:13;;;;;;;24.23;11.38;;;;;;;;;;5008981;28;20053;-64
2022/05/24 08:06:39;;;;;;;22.70;11.10;;;;;;;;;;5011639;28;20111;-63
2022/05/24 08:09:05;;;;;;;25.13;12.40;;;;;;;;;;5008898;28;20401;-65
2022/05/24 08:11:32;;;;;;;24.88;12.13;;;;;;;;;;5011824;28;20049;-64
2022/05/24 08:13:59;;;;;;;26.95;13.00;;;;;;;;;;5009274;28;20192;-64
2022/05/24 08:16:28;;;;;;;26.40;13.82;;;;;;;;;;5020810;28;20125;-65
2022/05/24 08:18:54;;;;;;;26.13;13.65;;;;;;;;;;5020835;28;20049;-64
2022/05/24 08:21:20;;;;;;;24.75;14.38;;;;;;;;;;5030209;28;20136;-64
2022/05/24 08:23:46;;;;;;;;;;;;;;;;;;5024551;28;20077;-63
2022/05/24 08:26:13;;;;;;;29.30;13.98;;;;;;;;;;5012745;28;19943;-64
2022/05/24 08:28:41;;;;;;;30.13;14.38;;;;;;;;;;5009359;28;20049;-64
2022/05/24 08:31:08;;;;;;;27.77;14.40;;;;;;;;;;5006957;28;20060;-64
2022/05/24 08:33:34;;;;;;;23.77;12.85;;;;;;;;;;5018255;28;20045;-64
2022/05/24 08:36:00;;;;;;;27.02;14.45;;;;;;;;;;5022963;28;20038;-64
2022/05/24 08:38:28;;;;;;;40.88;16.88;;;;;;;;;;5018969;28;20073;-62
2022/05/24 08:40:57;;;;;;;41.03;19.08;;;;;;;;;;5030146;28;20069;-63
2022/05/24 08:43:36;;;;;;;31.45;18.38;;;;;;;;;;5025340;28;20505;-63
2022/05/24 08:48:51;;;;;;;42.22;21.08;;;;;;;;;;5024996;28;20056;-63
2022/05/24 08:51:21;;;;;;;41.72;20.48;;;;;;;;;;5025426;28;20422;-63
2022/05/24 08:53:50;;;;;;;35.53;19.35;;;;;;;;;;5028043;28;20450;-62
2022/05/24 08:56:27;;;;;;;30.50;18.33;;;;;;;;;;5022527;28;20049;-63
2022/05/24 08:59:14;;;;;;;34.65;19.35;;;;;;;;;;5025739;28;20069;-63
2022/05/24 09:01:41;;;;;;;41.10;20.17;;;;;;;;;;5013354;28;20049;-64
2022/05/24 09:04:08;;;;;;;42.55;21.45;;;;;;;;;;5026227;28;20059;-63
2022/05/24 09:06:39;;;;;;;31.75;18.20;;;;;;;;;;5030307;28;20135;-63
2022/05/24 09:09:24;;;;;;;33.58;16.65;;;;;;;;;;5022137;28;20049;-64
2022/05/24 09:12:00;;;;;;;30.67;17.10;;;;;;;;;;5028255;28;20362;-63
2022/05/24 09:14:29;;;;;;;30.52;18.90;;;;;;;;;;5027226;28;20458;-63
2022/05/24 09:17:17;;;;;;;33.15;19.45;;;;;;;;;;5017356;28;20160;-62
2022/05/24 09:19:43;;;;;;;35.38;21.02;;;;;;;;;;5017018;28;20187;-63
2022/05/24 09:22:13;;;;;;;39.70;22.23;;;;;;;;;;5028575;28;20111;-63
2022/05/24 09:24:39;;;;;;;33.90;21.80;;;;;;;;;;5021732;28;20042;-63
2022/05/24 09:27:05;;;;;;;33.20;20.70;;;;;;;;;;5013551;28;20130;-63
2022/05/24 09:29:31;;;;;;;;;;;;;;;;;;5025741;28;20462;-62
2022/05/24 09:31:58;;;;;;;14.93;6.90;;;;;;;;;;5030129;28;19975;-63
2022/05/24 09:34:29;;;;;;;14.48;8.10;;;;;;;;;;5023119;28;20053;-62
2022/05/24 09:37:03;;;;;;;12.63;5.78;;;;;;;;;;5030412;28;20446;-63
2022/05/24 09:39:31;;;;;;;14.68;5.85;;;;;;;;;;4999288;28;20115;-62
2022/05/24 09:42:00;;;;;;;14.55;6.93;;;;;;;;;;5031207;28;20103;-62
2022/05/24 09:44:28;;;;;;;11.75;5.22;;;;;;;;;;5026977;28;20140;-62
2022/05/24 09:46:54;;;;;;;12.30;6.30;;;;;;;;;;5029716;28;20385;-63
2022/05/24 09:49:23;;;;;;;12.00;5.57;;;;;;;;;;5021851;28;20130;-63
2022/05/24 09:51:51;;;;;;;14.15;7.25;;;;;;;;;;5008964;28;20383;-63
2022/05/24 09:54:20;;;;;;;15.85;7.68;;;;;;;;;;5009822;28;20046;-64
2022/05/24 09:57:00;;;;;;;22.25;14.95;;;;;;;;;;5017735;28;20450;-63
2022/05/24 09:59:28;;;;;;;15.40;6.13;;;;;;;;;;5022187;28;20069;-64
2022/05/24 10:01:54;;;;;;;12.10;5.75;;;;;;;;;;5004966;28;20115;-63
2022/05/24 10:04:28;;;;;;;13.50;6.43;;;;;;;;;;5009100;28;20057;-63
2022/05/24 10:07:07;;;;;;;14.93;6.25;;;;;;;;;;5008925;28;20508;-63
2022/05/24 10:09:36;;;;;;;14.18;6.90;;;;;;;;;;5009950;28;20103;-63
2022/05/24 10:12:12;;;;;;;14.82;6.95;;;;;;;;;;5009391;28;20045;-64
2022/05/24 10:14:52;;;;;;;18.92;10.65;;;;;;;;;;5009527;28;20058;-63
2022/05/24 10:17:37;;;;;;;16.05;7.97;;;;;;;;;;5008649;28;20046;-64
2022/05/24 10:20:05;;;;;;;18.88;9.40;;;;;;;;;;5009733;28;20144;-64
2022/05/24 10:22:52;;;;;;;17.55;9.02;;;;;;;;;;5009401;28;20059;-64
2022/05/24 10:25:27;;;;;;;13.30;6.40;;;;;;;;;;5009223;28;20054;-65
2022/05/24 10:27:59;;;;;;;15.13;6.82;;;;;;;;;;5008132;28;20344;-65
2022/05/24 10:30:31;;;;;;;14.57;7.47;;;;;;;;;;5008471;28;20046;-65
2022/05/24 10:38:44;;;;;;;14.20;5.53;;;;;;;;;;5008577;28;20061;-65
2022/05/24 10:41:15;;;;;;;16.58;6.10;;;;;;;;;;5008194;28;20077;-64
2022/05/24 10:43:48;;;;;;;19.58;6.82;;;;;;;;;;5024576;28;20508;-64
2022/05/24 10:46:15;;;;;;;13.63;6.90;;;;;;;;;;5008830;28;20080;-65
2022/05/24 10:48:49;;;;;;;14.82;6.57;;;;;;;;;;5009129;28;20042;-65
2022/05/24 10:51:28;;;;;;;16.10;7.78;;;;;;;;;;5008512;28;20085;-67
2022/05/24 10:53:56;;;;;;;13.65;6.88;;;;;;;;;;5007140;28;20049;-64
2022/05/24 10:56:44;;;;;;;15.18;6.70;;;;;;;;;;5009650;28;20501;-66
2022/05/24 10:59:16;;;;;;;12.85;5.57;;;;;;;;;;5008678;28;20139;-64
2022/05/24 11:01:44;;;;;;;13.05;5.63;;;;;;;;;;5009090;28;20086;-66
2022/05/24 11:04:23;;;;;;;16.65;6.88;;;;;;;;;;5007397;28;20049;-65
2022/05/24 11:06:55;;;;;;;15.90;6.38;;;;;;;;;;5009151;28;20049;-66
2022/05/24 11:09:23;;;;;;;17.65;6.95;;;;;;;;;;5008696;28;20049;-67
2022/05/24 11:12:15;;;;;;;14.50;6.78;;;;;;;;;;5007333;28;20112;-66
2022/05/24 11:14:48;;;;;;;18.05;10.10;;;;;;;;;;5008221;28;20050;-66
2022/05/24 11:17:16;;;;;;;14.88;7.20;;;;;;;;;;5012445;28;20073;-66
2022/05/24 11:19:44;;;;;;;13.25;6.65;;;;;;;;;;5013499;28;20405;-66
2022/05/24 11:22:20;;;;;;;14.05;5.25;;;;;;;;;;5013369;28;20049;-66
2022/05/24 11:24:50;;;;;;;12.37;5.30;;;;;;;;;;5007234;28;20046;-67
2022/05/24 11:27:23;;;;;;;12.70;4.82;;;;;;;;;;5008593;28;20435;-65
2022/05/24 11:29:51;;;;;;;11.40;3.97;;;;;;;;;;5010522;28;20054;-63
2022/05/24 11:32:36;;;;;;;9.98;4.30;;;;;;;;;;5008209;28;20038;-64
2022/05/24 11:35:05;;;;;;;12.93;5.07;;;;;;;;;;5010659;28;20153;-64
2022/05/24 11:37:32;;;;;;;11.00;4.47;;;;;;;;;;5008254;28;20420;-63
2022/05/24 11:40:17;;;;;;;10.75;4.72;;;;;;;;;;5009116;28;20076;-63
2022/05/24 11:42:46;;;;;;;9.80;3.88;;;;;;;;;;5011377;28;20213;-64
2022/05/24 11:45:31;;;;;;;9.77;4.22;;;;;;;;;;4992258;28;20046;-64
2022/05/24 11:48:06;;;;;;;11.10;3.97;;;;;;;;;;5009722;28;20065;-64
2022/05/24 11:50:33;;;;;;;9.45;4.05;;;;;;;;;;5018388;28;20100;-66
2022/05/24 11:53:10;;;;;;;9.65;3.83;;;;;;;;;;5017029;28;20050;-63
2022/05/24 11:55:44;;;;;;;10.48;3.80;;;;;;;;;;5020034;28;20053;-63
2022/05/24 11:58:19;;;;;;;10.48;3.90;;;;;;;;;;5016030;28;20045;-64
2022/05/24 12:01:06;;;;;;;10.25;4.10;;;;;;;;;;5023634;28;20049;-64
2022/05/24 12:09:49;;;;;;;10.70;3.55;;;;;;;;;;5001283;28;20351;-65
2022/05/24 12:12:28;;;;;;;10.73;3.03;;;;;;;;;;5010571;28;20485;-66
2022/05/24 12:15:13;;;;;;;12.70;5.70;;;;;;;;;;5009065;28;20100;-69
2022/05/24 12:17:40;;;;;;;11.50;3.85;;;;;;;;;;5003820;28;20045;-66
2022/05/24 12:20:25;;;;;;;9.55;3.17;;;;;;;;;;5008898;28;20045;-66
2022/05/24 12:23:10;;;;;;;11.00;3.13;;;;;;;;;;5008869;28;20038;-67
2022/05/24 12:25:55;;;;;;;10.18;2.95;;;;;;;;;;5007353;28;20050;-67
2022/05/24 12:28:26;;;;;;;10.63;3.13;;;;;;;;;;5005196;28;20132;-66
2022/05/24 12:30:52;;;;;;;10.27;3.30;;;;;;;;;;5008691;28;20168;-67
2022/05/24 12:33:18;;;;;;;;;;;;;;;;;;5008381;28;20069;-66
2022/05/24 12:35:52;;;;;;;10.88;3.35;;;;;;;;;;5018678;28;19941;-68
2022/05/24 12:38:21;;;;;;;9.45;2.80;;;;;;;;;;5015098;28;20117;-66
2022/05/24 12:40:47;;;;;;;10.50;2.83;;;;;;;;;;5010116;28;20129;-68
2022/05/24 12:43:16;;;;;;;9.20;3.03;;;;;;;;;;5013177;28;20056;-66
2022/05/24 12:45:43;;;;;;;9.73;3.03;;;;;;;;;;5016769;28;20872;-65
2022/05/24 12:48:18;;;;;;;7.20;2.83;;;;;;;;;;5020413;28;20431;-66
2022/05/24 12:50:45;;;;;;;8.27;3.00;;;;;;;;;;5013981;28;20071;-70
2022/05/24 12:53:12;;;;;;;10.30;3.13;;;;;;;;;;5027180;28;20045;-67
2022/05/24 12:55:55;;;;;;;10.35;2.90;;;;;;;;;;5029626;28;20109;-66
2022/05/24 12:58:27;;;;;;;10.55;3.00;;;;;;;;;;5013786;28;20054;-66
2022/05/24 13:01:07;;;;;;;10.30;3.10;;;;;;;;;;5023534;28;20184;-66
2022/05/24 13:03:33;;;;;;;12.13;3.33;;;;;;;;;;5025060;28;20053;-66
2022/05/24 13:05:59;;;;;;;14.52;3.70;;;;;;;;;;5030138;28;20121;-66
2022/05/24 13:08:25;;;;;;;14.40;3.63;;;;;;;;;;5023825;28;20052;-65
2022/05/24 13:10:52;;;;;;;10.13;3.10;;;;;;;;;;5023747;28;20049;-65
2022/05/24 13:13:21;;;;;;;12.13;3.50;;;;;;;;;;5029894;28;20041;-66
2022/05/24 13:15:51;;;;;;;10.48;3.22;;;;;;;;;;5019075;28;20061;-65
2022/05/24 13:18:19;;;;;;;9.05;3.10;;;;;;;;;;5030024;28;20457;-67
2022/05/24 13:20:48;;;;;;;12.70;2.72;;;;;;;;;;5018989;28;20046;-65
2022/05/24 13:23:14;;;;;;;8.15;2.17;;;;;;;;;;5027365;28;20489;-66
2022/05/24 13:26:12;;;;;;;8.82;2.10;;;;;;;;;;5026817;28;20064;-66
2022/05/24 13:28:45;;;;;;;10.43;2.40;;;;;;;;;;4989873;28;20109;-64
2022/05/24 13:33:57;;;;;;;6.32;2.35;;;;;;;;;;4990393;28;20110;-66
2022/05/24 13:36:31;;;;;;;8.90;2.58;;;;;;;;;;5011872;28;20124;-67
2022/05/24 13:39:02;;;;;;;9.57;2.30;;;;;;;;;;5026210;28;20474;-67
2022/05/24 13:41:32;;;;;;;10.13;2.20;;;;;;;;;;5022585;28;20620;-65
2022/05/24 13:44:07;;;;;;;7.20;2.10;;;;;;;;;;5027614;28;20050;-67
2022/05/24 13:46:46;;;;;;;8.52;2.30;;;;;;;;;;5017717;28;20474;-66
2022/05/24 13:49:25;;;;;;;8.05;2.53;;;;;;;;;;5002022;28;20042;-66
2022/05/24 13:51:51;;;;;;;9.93;2.80;;;;;;;;;;5006910;28;20054;-65
2022/05/24 13:54:17;;;;;;;;;;;;;;;;;;5008243;28;20144;-68
2022/05/24 13:56:47;;;;;;;9.98;2.60;;;;;;;;;;5007080;28;19968;-65
2022/05/24 13:59:20;;;;;;;10.65;2.85;;;;;;;;;;5006664;28;20053;-66
2022/05/24 14:01:49;;;;;;;9.18;2.55;;;;;;;;;;5005555;28;20049;-68
2022/05/24 14:04:26;;;;;;;8.38;2.50;;;;;;;;;;5004739;28;20054;-68
2022/05/24 14:06:52;;;;;;;10.63;2.60;;;;;;;;;;5003753;28;20300;-65
2022/05/24 14:09:19;;;;;;;9.45;2.47;;;;;;;;;;5009507;28;20123;-66
2022/05/24 14:11:52;;;;;;;9.20;3.10;;;;;;;;;;5013130;28;20464;-67
2022/05/24 14:14:20;;;;;;;7.97;2.90;;;;;;;;;;5010624;28;20485;-67
2022/05/24 14:16:46;;;;;;;13.25;4.32;;;;;;;;;;5023064;28;20074;-67
2022/05/24 14:19:12;;;;;;;10.85;3.45;;;;;;;;;;5023780;28;20140;-67
2022/05/24 14:21:40;;;;;;;9.75;3.58;;;;;;;;;;5021536;28;20132;-65
2022/05/24 14:24:13;;;;;;;10.52;3.95;;;;;;;;;;5020087;28;20049;-67
2022/05/24 14:26:51;;;;;;;15.07;4.53;;;;;;;;;;5025730;28;20465;-68
2022/05/24 14:29:17;;;;;;;13.68;4.82;;;;;;;;;;5023789;28;20050;-69
2022/05/24 14:31:44;;;;;;;10.80;4.30;;;;;;;;;;5025618;28;20546;-70
2022/05/24 14:34:10;;;;;;;;;;;;;;;;;;5025776;28;20045;-70
2022/05/24 14:36:36;;;;;;;12.98;4.15;;;;;;;;;;5009833;28;20047;-66
2022/05/24 14:39:02;;;;;;;;;;;;;;;;;;5008491;28;20156;-66
2022/05/24 14:41:29;;;;;;;10.63;4.40;;;;;;;;;;5008324;28;20075;-67
2022/05/24 14:43:59;;;;;;;14.10;5.10;;;;;;;;;;5007170;28;20489;-67
2022/05/24 14:46:26;;;;;;;11.45;4.50;;;;;;;;;;5007986;28;20046;-67
2022/05/24 14:48:53;;;;;;;12.23;3.88;;;;;;;;;;5016147;28;20045;-68
2022/05/24 14:51:23;;;;;;;12.77;3.80;;;;;;;;;;5016762;28;20041;-67
2022/05/24 14:53:49;;;;;;;11.20;3.90;;;;;;;;;;5007398;28;20065;-66
2022/05/24 14:56:15;;;;;;;9.63;3.78;;;;;;;;;;5014944;28;20124;-71
2022/05/24 14:58:41;;;;;;;11.27;5.03;;;;;;;;;;5007140;28;20046;-66
2022/05/24 15:01:07;;;;;;;11.10;4.70;;;;;;;;;;5005403;28;20427;-64
2022/05/24 15:03:33;;;;;;;12.90;4.88;;;;;;;;;;5008836;28;20448;-69
2022/05/24 15:05:59;;;;;;;11.63;4.50;;;;;;;;;;5004435;28;20514;-64
2022/05/24 15:16:41;;;;;;;10.68;4.97;;;;;;;;;;5016394;28;20046;-64
2022/05/24 15:19:07;;;;;;;13.55;5.35;;;;;;;;;;5021110;28;20056;-67
2022/05/24 15:21:36;;;;;;;14.38;5.90;;;;;;;;;;5009031;28;20536;-68
2022/05/24 15:24:05;;;;;;;11.63;5.63;;;;;;;;;;5019789;28;20672;-65
2022/05/24 15:26:39;;;;;;;14.30;5.30;;;;;;;;;;5025824;28;20111;-68
2022/05/24 15:29:06;;;;;;;12.13;5.88;;;;;;;;;;5024734;28;20049;-65
2022/05/24 15:31:33;;;;;;;15.57;6.43;;;;;;;;;;5012703;28;20050;-65